Time;durP1;ratioP1;P1;durP2;ratioP2;P2;SDS_P1;SDS_P2;PMS_P1;PMS_P2;Temp;Humidity;BMP_temperature;BMP_pressure;BME280_temperature;BME280_humidity;BME280_pressure;Samples;Min_cycle;Max_cycle;Signal;HPM_P1;HPM_P2
2022/10/26 00:01:08;;;;;;;0.70;0.70;;;15.20;99.90;;;;;;5027937;28;20227;-67
2022/10/26 00:03:36;;;;;;;0.63;0.63;;;15.20;99.90;;;;;;5031827;28;20215;-67
2022/10/26 00:06:05;;;;;;;0.67;0.67;;;15.10;99.90;;;;;;5030545;28;20207;-68
2022/10/26 00:08:32;;;;;;;0.70;0.70;;;15.10;99.90;;;;;;5032965;28;20268;-68
2022/10/26 00:10:59;;;;;;;0.63;0.63;;;15.00;99.90;;;;;;5032614;28;20228;-69
2022/10/26 00:13:26;;;;;;;0.93;0.70;;;15.00;99.90;;;;;;5029551;28;20211;-69
2022/10/26 00:15:53;;;;;;;0.63;0.63;;;14.90;99.90;;;;;;5029356;28;20201;-70
2022/10/26 00:18:21;;;;;;;0.60;0.60;;;15.00;99.90;;;;;;5029081;28;20204;-69
2022/10/26 00:20:48;;;;;;;0.67;0.63;;;14.90;99.90;;;;;;5028444;28;20232;-70
2022/10/26 00:23:15;;;;;;;0.70;0.60;;;15.00;99.90;;;;;;5029220;28;20201;-70
2022/10/26 00:25:42;;;;;;;0.60;0.60;;;15.00;99.90;;;;;;5022182;28;20208;-69
2022/10/26 00:28:09;;;;;;;0.67;0.67;;;15.00;99.90;;;;;;5028010;28;20203;-68
2022/10/26 00:30:39;;;;;;;0.70;0.70;;;15.00;99.90;;;;;;5027779;28;20229;-67
2022/10/26 00:33:06;;;;;;;0.67;0.67;;;15.10;99.90;;;;;;5032895;28;20244;-68
2022/10/26 00:35:34;;;;;;;0.90;0.63;;;15.30;99.90;;;;;;5031966;28;20292;-68
2022/10/26 00:38:01;;;;;;;0.70;0.70;;;15.10;99.90;;;;;;5030322;28;20655;-67
2022/10/26 00:40:29;;;;;;;0.63;0.63;;;15.20;99.90;;;;;;5033933;28;20252;-67
2022/10/26 00:42:56;;;;;;;0.70;0.70;;;15.20;99.90;;;;;;5026970;28;20197;-68
2022/10/26 00:45:25;;;;;;;0.73;0.63;;;15.30;99.90;;;;;;5033802;28;20215;-69
2022/10/26 00:47:56;;;;;;;1.43;0.70;;;15.30;99.90;;;;;;5031253;28;20209;-69
2022/10/26 00:50:29;;;;;;;0.90;0.90;;;15.30;99.90;;;;;;5028768;28;20232;-68
2022/10/26 00:52:59;;;;;;;0.77;0.77;;;15.30;99.90;;;;;;5032958;28;20231;-68
2022/10/26 00:55:31;;;;;;;0.87;0.87;;;15.20;99.90;;;;;;5028576;28;20205;-69
2022/10/26 00:58:00;;;;;;;0.87;0.87;;;15.20;99.90;;;;;;5029767;28;20230;-68
2022/10/26 01:00:27;;;;;;;0.73;0.73;;;15.40;99.90;;;;;;5030849;28;20228;-68
2022/10/26 01:02:57;;;;;;;1.17;0.70;;;15.10;99.90;;;;;;5028829;28;20680;-68
2022/10/26 01:05:24;;;;;;;0.50;0.50;;;15.20;99.90;;;;;;5018906;28;20197;-67
2022/10/26 01:07:52;;;;;;;1.13;0.90;;;15.20;99.90;;;;;;5023847;28;20215;-69
2022/10/26 01:10:21;;;;;;;1.00;0.80;;;15.10;99.90;;;;;;5024383;28;20242;-68
2022/10/26 01:12:48;;;;;;;0.50;0.50;;;15.10;99.90;;;;;;5024297;28;20290;-68
2022/10/26 01:15:15;;;;;;;0.60;0.60;;;15.10;99.90;;;;;;5027319;28;20207;-69
2022/10/26 01:17:54;;;;;;;1.20;0.93;;;15.00;99.90;;;;;;5032840;28;20205;-69
2022/10/26 01:20:56;;;;;;;0.90;0.90;;;15.10;99.90;;;;;;5026840;28;20277;-69
2022/10/26 01:23:30;;;;;;;0.80;0.63;;;15.10;99.90;;;;;;5034444;28;20200;-68
2022/10/26 01:26:17;;;;;;;0.97;0.90;;;15.20;99.90;;;;;;5042955;28;20291;-69
2022/10/26 01:29:10;;;;;;;1.43;0.80;;;15.20;99.90;;;;;;5029112;28;20642;-68
2022/10/26 01:31:43;;;;;;;0.63;0.60;;;15.30;99.90;;;;;;5022341;28;20237;-69
2022/10/26 01:34:15;;;;;;;0.63;0.63;;;15.30;99.90;;;;;;5032172;28;20692;-70
2022/10/26 01:36:48;;;;;;;0.87;0.67;;;15.40;99.90;;;;;;5030712;28;20211;-69
2022/10/26 01:39:19;;;;;;;0.63;0.60;;;15.40;99.90;;;;;;5029250;28;20201;-67
2022/10/26 01:41:49;;;;;;;0.67;0.67;;;15.50;99.90;;;;;;5032880;28;20275;-69
2022/10/26 01:44:21;;;;;;;0.60;0.60;;;15.50;99.90;;;;;;5040121;28;20207;-69
2022/10/26 01:46:51;;;;;;;1.03;0.60;;;15.50;99.90;;;;;;5031489;28;20215;-69
2022/10/26 01:49:22;;;;;;;0.67;0.67;;;15.50;99.90;;;;;;5021765;28;20201;-68
2022/10/26 01:51:50;;;;;;;0.50;0.50;;;15.60;99.90;;;;;;5033546;28;20212;-70
2022/10/26 01:54:17;;;;;;;0.70;0.70;;;15.60;99.90;;;;;;5025889;28;20200;-68
2022/10/26 01:56:48;;;;;;;1.13;0.53;;;15.60;99.90;;;;;;5030173;28;20201;-68
2022/10/26 01:59:41;;;;;;;0.57;0.57;;;15.60;99.90;;;;;;5047007;23;20334;-62
2022/10/26 02:02:43;;;;;;;1.00;0.80;;;15.60;99.90;;;;;;5023153;28;20193;-63
2022/10/26 02:05:30;;;;;;;0.97;0.80;;;15.50;99.90;;;;;;5027301;28;20555;-63
2022/10/26 02:08:07;;;;;;;0.83;0.83;;;15.50;99.90;;;;;;5026503;28;20228;-62
2022/10/26 02:10:46;;;;;;;0.60;0.60;;;15.40;99.90;;;;;;5044310;28;20283;-62
2022/10/26 02:13:20;;;;;;;0.83;0.70;;;15.40;99.90;;;;;;5029677;28;20213;-62
2022/10/26 02:15:52;;;;;;;0.60;0.60;;;15.40;99.90;;;;;;5020593;28;20651;-63
2022/10/26 02:18:30;;;;;;;0.60;0.60;;;15.40;99.90;;;;;;5016850;28;20236;-62
2022/10/26 02:21:03;;;;;;;0.80;0.80;;;15.30;99.90;;;;;;5022159;28;20267;-62
2022/10/26 02:23:32;;;;;;;0.90;0.80;;;15.40;99.90;;;;;;5021879;28;20252;-61
2022/10/26 02:26:01;;;;;;;0.63;0.63;;;15.30;99.90;;;;;;5015098;28;20205;-62
2022/10/26 02:28:32;;;;;;;0.57;0.57;;;15.20;99.90;;;;;;5010414;28;20227;-62
2022/10/26 02:31:02;;;;;;;1.20;0.80;;;15.20;99.90;;;;;;5009648;28;20565;-62
2022/10/26 02:33:35;;;;;;;0.60;0.60;;;15.20;99.90;;;;;;5020847;28;20225;-62
2022/10/26 02:36:05;;;;;;;1.17;1.00;;;15.30;99.90;;;;;;5007913;28;20201;-61
2022/10/26 02:38:34;;;;;;;0.60;0.60;;;15.20;99.90;;;;;;5012967;28;20232;-62
2022/10/26 02:41:02;;;;;;;0.60;0.60;;;15.20;99.90;;;;;;5011890;28;20201;-61
2022/10/26 02:43:32;;;;;;;0.63;0.63;;;15.10;99.90;;;;;;5023598;28;20193;-63
2022/10/26 02:46:05;;;;;;;1.23;0.80;;;15.20;99.90;;;;;;5003825;28;20205;-64
2022/10/26 02:48:33;;;;;;;1.17;0.80;;;15.10;99.90;;;;;;5019820;28;20564;-63
2022/10/26 02:51:08;;;;;;;1.90;1.10;;;15.10;99.90;;;;;;5021298;28;20197;-63
2022/10/26 02:53:38;;;;;;;1.83;0.87;;;15.00;99.90;;;;;;5023580;28;20224;-65
2022/10/26 02:56:10;;;;;;;0.90;0.90;;;15.10;99.90;;;;;;5015382;28;20207;-61
2022/10/26 02:58:41;;;;;;;0.87;0.70;;;15.10;99.90;;;;;;5023085;28;20821;-61
2022/10/26 03:01:08;;;;;;;1.17;0.70;;;15.10;99.90;;;;;;5023858;28;20219;-60
2022/10/26 03:03:37;;;;;;;1.90;0.90;;;15.10;99.90;;;;;;5026840;28;20206;-62
2022/10/26 03:06:04;;;;;;;0.87;0.80;;;15.10;99.90;;;;;;5023805;28;20822;-62
2022/10/26 03:08:30;;;;;;;0.53;0.53;;;15.20;99.90;;;;;;5029269;28;20220;-61
2022/10/26 03:10:57;;;;;;;0.57;0.57;;;15.20;99.90;;;;;;5024204;28;20577;-62
2022/10/26 03:13:24;;;;;;;0.80;0.80;;;15.10;99.90;;;;;;5028748;28;20574;-62
2022/10/26 03:15:54;;;;;;;0.77;0.70;;;15.10;99.90;;;;;;5025082;28;20227;-62
2022/10/26 03:18:21;;;;;;;1.27;0.90;;;15.10;99.90;;;;;;5029877;28;20220;-62
2022/10/26 03:20:49;;;;;;;1.07;0.67;;;15.10;99.90;;;;;;5025313;28;20670;-62
2022/10/26 03:23:16;;;;;;;0.77;0.77;;;15.20;99.90;;;;;;5023191;28;20214;-62
2022/10/26 03:25:43;;;;;;;0.70;0.70;;;15.20;99.90;;;;;;5029617;28;20200;-63
2022/10/26 03:28:09;;;;;;;0.80;0.80;;;15.10;99.90;;;;;;5025351;28;20311;-63
2022/10/26 03:30:36;;;;;;;0.83;0.80;;;15.10;99.90;;;;;;5030889;28;20215;-62
2022/10/26 03:33:03;;;;;;;0.60;0.60;;;15.10;99.90;;;;;;5023116;28;20225;-60
2022/10/26 03:35:30;;;;;;;0.73;0.70;;;15.20;99.90;;;;;;5031769;28;20223;-60
2022/10/26 03:37:58;;;;;;;1.10;0.73;;;15.10;99.90;;;;;;5024444;28;20304;-63
2022/10/26 03:40:25;;;;;;;1.13;0.83;;;15.10;99.90;;;;;;5024130;28;20656;-63
2022/10/26 03:42:51;;;;;;;0.63;0.60;;;15.10;99.90;;;;;;5029047;28;20211;-62
2022/10/26 03:45:18;;;;;;;0.67;0.67;;;15.10;99.90;;;;;;5023292;28;20201;-62
2022/10/26 03:47:46;;;;;;;0.80;0.80;;;15.20;99.90;;;;;;5029627;28;20733;-64
2022/10/26 03:50:14;;;;;;;1.07;0.70;;;15.20;99.90;;;;;;5023803;28;20197;-61
2022/10/26 03:52:41;;;;;;;0.77;0.77;;;15.20;99.90;;;;;;5030749;28;20224;-62
2022/10/26 03:55:10;;;;;;;0.70;0.70;;;15.30;99.90;;;;;;5023465;28;20202;-61
2022/10/26 03:57:40;;;;;;;0.60;0.60;;;15.30;99.90;;;;;;5023167;28;20760;-61
2022/10/26 04:00:08;;;;;;;0.60;0.60;;;15.30;99.90;;;;;;5027791;28;20209;-63
2022/10/26 04:02:35;;;;;;;0.90;0.80;;;15.30;99.90;;;;;;5023034;28;20582;-62
2022/10/26 04:05:02;;;;;;;0.90;0.90;;;15.30;99.90;;;;;;5029576;28;20211;-62
2022/10/26 04:07:29;;;;;;;1.07;0.80;;;15.30;99.90;;;;;;5020753;28;20224;-62
2022/10/26 04:09:56;;;;;;;0.60;0.60;;;15.30;99.90;;;;;;5025667;28;20200;-61
2022/10/26 04:12:24;;;;;;;0.60;0.60;;;15.20;99.90;;;;;;5022827;28;20233;-63
2022/10/26 04:14:51;;;;;;;0.70;0.70;;;15.30;99.90;;;;;;5023382;28;20292;-62
2022/10/26 04:17:18;;;;;;;0.60;0.60;;;15.30;99.90;;;;;;5026012;28;20292;-63
2022/10/26 04:19:44;;;;;;;0.77;0.77;;;15.20;99.90;;;;;;5024135;28;20206;-63
2022/10/26 04:22:11;;;;;;;0.80;0.80;;;15.30;99.90;;;;;;5025780;28;20641;-61
2022/10/26 04:24:38;;;;;;;0.90;0.80;;;15.30;99.90;;;;;;5024671;28;20215;-62
2022/10/26 04:27:05;;;;;;;0.70;0.70;;;15.30;99.90;;;;;;5028109;28;20208;-62
2022/10/26 04:29:33;;;;;;;0.70;0.70;;;15.40;99.90;;;;;;5025295;28;20209;-64
2022/10/26 04:32:00;;;;;;;0.77;0.77;;;15.30;99.90;;;;;;5020170;28;20573;-65
2022/10/26 04:34:26;;;;;;;0.80;0.80;;;15.40;99.90;;;;;;5024742;28;20231;-61
2022/10/26 04:36:54;;;;;;;0.70;0.70;;;15.30;99.90;;;;;;5024641;28;20207;-64
2022/10/26 04:39:21;;;;;;;1.57;0.97;;;15.30;99.90;;;;;;5026737;28;20224;-63
2022/10/26 04:41:48;;;;;;;0.87;0.77;;;15.40;99.90;;;;;;5032899;28;20213;-64
2022/10/26 04:44:15;;;;;;;0.93;0.80;;;15.40;99.90;;;;;;5036802;28;20197;-62
2022/10/26 04:46:43;;;;;;;1.73;0.70;;;15.40;99.90;;;;;;5024223;28;20688;-63
2022/10/26 04:49:10;;;;;;;0.80;0.80;;;15.40;99.90;;;;;;5025735;28;20217;-63
2022/10/26 04:51:37;;;;;;;0.80;0.80;;;15.40;99.90;;;;;;5024325;28;20201;-62
2022/10/26 04:54:04;;;;;;;1.17;1.07;;;15.40;99.90;;;;;;5025172;28;20223;-63
2022/10/26 04:56:31;;;;;;;1.20;1.10;;;15.40;99.90;;;;;;5025146;28;20211;-63
2022/10/26 04:58:58;;;;;;;1.07;0.97;;;15.40;99.90;;;;;;5022163;28;20224;-64
2022/10/26 05:01:25;;;;;;;0.77;0.77;;;15.40;99.90;;;;;;5025299;28;20282;-64
2022/10/26 05:03:53;;;;;;;0.83;0.70;;;15.40;99.90;;;;;;5022620;28;20208;-64
2022/10/26 05:06:20;;;;;;;1.03;0.80;;;15.40;99.90;;;;;;5018942;28;20296;-64
2022/10/26 05:08:47;;;;;;;0.70;0.70;;;15.40;99.90;;;;;;5020494;28;20661;-62
2022/10/26 05:11:14;;;;;;;0.80;0.80;;;15.50;99.90;;;;;;5014020;28;20573;-63
2022/10/26 05:13:41;;;;;;;0.70;0.70;;;15.50;99.90;;;;;;5006704;28;20229;-63
2022/10/26 05:16:08;;;;;;;0.70;0.70;;;15.50;99.90;;;;;;5015393;28;20205;-63
2022/10/26 05:18:35;;;;;;;0.80;0.80;;;15.50;99.90;;;;;;5014687;28;20221;-61
2022/10/26 05:21:03;;;;;;;0.70;0.70;;;15.50;99.90;;;;;;5016928;28;20200;-62
2022/10/26 05:23:30;;;;;;;0.73;0.73;;;15.60;99.90;;;;;;5019847;28;20674;-62
2022/10/26 05:25:57;;;;;;;0.77;0.77;;;15.60;99.90;;;;;;5015398;28;20259;-62
2022/10/26 05:28:24;;;;;;;0.83;0.83;;;15.60;99.90;;;;;;5014412;28;20225;-61
2022/10/26 05:30:50;;;;;;;0.80;0.80;;;15.60;99.90;;;;;;5015546;28;20213;-62
2022/10/26 05:33:17;;;;;;;0.60;0.60;;;15.60;99.90;;;;;;5016089;28;20233;-63
2022/10/26 05:35:44;;;;;;;0.80;0.80;;;15.60;99.90;;;;;;5012386;28;20216;-62
2022/10/26 05:38:14;;;;;;;1.07;1.07;;;15.70;99.90;;;;;;5024267;28;20220;-62
2022/10/26 05:40:47;;;;;;;1.43;1.20;;;15.70;99.90;;;;;;5016705;28;20209;-61
2022/10/26 05:43:14;;;;;;;1.13;0.80;;;15.70;99.90;;;;;;5014987;28;20197;-62
2022/10/26 05:45:41;;;;;;;0.80;0.77;;;15.70;99.90;;;;;;5017573;28;20674;-63
2022/10/26 05:48:08;;;;;;;0.67;0.67;;;15.90;99.90;;;;;;5016099;28;20312;-61
2022/10/26 05:50:35;;;;;;;0.90;0.90;;;15.90;99.90;;;;;;5020404;28;20579;-61
2022/10/26 05:53:02;;;;;;;0.80;0.80;;;15.80;99.90;;;;;;5010602;28;20220;-61
2022/10/26 05:55:31;;;;;;;0.80;0.80;;;15.80;99.90;;;;;;5017183;28;20292;-64
2022/10/26 05:57:58;;;;;;;0.80;0.80;;;15.80;99.90;;;;;;5017093;28;20232;-61
2022/10/26 06:00:27;;;;;;;1.00;0.90;;;15.80;99.90;;;;;;5015547;28;20205;-61
2022/10/26 06:03:15;;;;;;;0.80;0.80;;;15.90;99.90;;;;;;5026420;28;20578;-61
2022/10/26 06:05:51;;;;;;;0.83;0.83;;;15.90;99.90;;;;;;5018529;28;20209;-61
2022/10/26 06:08:18;;;;;;;0.70;0.70;;;15.90;99.90;;;;;;5024740;28;20224;-62
2022/10/26 06:10:48;;;;;;;0.77;0.77;;;16.00;99.90;;;;;;5023694;28;20680;-62
2022/10/26 06:13:15;;;;;;;1.17;0.80;;;16.00;99.90;;;;;;5025174;28;20221;-62
2022/10/26 06:15:51;;;;;;;0.80;0.80;;;16.00;99.90;;;;;;5023505;28;20228;-62
2022/10/26 06:18:26;;;;;;;0.87;0.87;;;16.00;99.90;;;;;;5020756;28;20587;-61
2022/10/26 06:21:04;;;;;;;0.83;0.83;;;15.90;99.90;;;;;;5021489;28;20210;-61
2022/10/26 06:23:42;;;;;;;1.20;0.83;;;15.90;99.90;;;;;;5016952;28;20212;-64
2022/10/26 06:26:22;;;;;;;0.87;0.87;;;15.90;99.90;;;;;;5019985;28;20204;-64
2022/10/26 06:28:57;;;;;;;1.67;0.70;;;15.90;99.90;;;;;;5020577;28;20229;-62
2022/10/26 06:31:24;;;;;;;0.90;0.90;;;15.90;99.90;;;;;;5013604;28;20204;-62
2022/10/26 06:33:54;;;;;;;1.00;1.00;;;15.90;99.90;;;;;;5013730;28;20661;-63
2022/10/26 06:36:23;;;;;;;1.17;1.13;;;15.90;99.90;;;;;;5026124;28;20200;-61
2022/10/26 06:38:54;;;;;;;0.90;0.90;;;15.90;99.90;;;;;;5021234;28;20235;-61
2022/10/26 06:41:23;;;;;;;0.90;0.90;;;15.90;99.90;;;;;;5017574;28;20213;-61
2022/10/26 06:43:51;;;;;;;1.20;1.10;;;15.90;99.90;;;;;;5026006;28;20208;-62
2022/10/26 06:46:30;;;;;;;0.93;0.90;;;15.90;99.90;;;;;;5021107;28;20252;-62
2022/10/26 06:49:05;;;;;;;1.20;1.10;;;15.90;99.90;;;;;;5032970;28;20227;-64
2022/10/26 06:51:36;;;;;;;1.10;1.00;;;15.90;99.90;;;;;;5041485;28;20299;-62
2022/10/26 06:54:13;;;;;;;0.80;0.80;;;15.90;99.90;;;;;;5029617;28;20224;-62
2022/10/26 06:56:42;;;;;;;1.30;1.17;;;15.90;99.90;;;;;;5021756;28;20207;-61
2022/10/26 06:59:16;;;;;;;2.13;1.13;;;15.90;99.90;;;;;;5019536;28;20707;-60
2022/10/26 07:01:43;;;;;;;1.47;1.00;;;16.00;99.90;;;;;;5021990;28;20209;-61
2022/10/26 07:04:10;;;;;;;1.10;1.00;;;16.00;99.90;;;;;;5029178;28;20207;-63
2022/10/26 07:06:36;;;;;;;2.00;1.40;;;16.00;99.90;;;;;;5010992;28;20236;-62
2022/10/26 07:09:03;;;;;;;1.17;1.10;;;16.10;99.90;;;;;;5017731;28;20220;-62
2022/10/26 07:11:30;;;;;;;1.00;1.00;;;16.10;99.90;;;;;;5014571;28;20204;-62
2022/10/26 07:13:58;;;;;;;1.07;1.07;;;16.20;99.90;;;;;;5012761;28;20221;-62
2022/10/26 07:16:25;;;;;;;1.17;0.77;;;16.10;99.90;;;;;;5019297;28;20202;-63
2022/10/26 07:18:52;;;;;;;0.93;0.93;;;16.20;99.90;;;;;;5032822;28;20235;-61
2022/10/26 07:21:18;;;;;;;1.80;1.30;;;16.20;99.90;;;;;;5022833;28;20205;-62
2022/10/26 07:23:45;;;;;;;0.90;0.90;;;16.20;99.90;;;;;;5017783;28;20206;-62
2022/10/26 07:26:12;;;;;;;1.30;1.10;;;16.20;99.90;;;;;;5020647;28;20204;-62
2022/10/26 07:28:39;;;;;;;1.73;1.07;;;16.30;99.90;;;;;;5015680;28;20229;-62
2022/10/26 07:31:07;;;;;;;1.03;1.03;;;16.30;99.90;;;;;;5023207;28;20203;-62
2022/10/26 07:33:34;;;;;;;1.33;1.20;;;16.40;99.90;;;;;;5021275;28;20229;-63
2022/10/26 07:36:01;;;;;;;1.30;1.20;;;16.40;99.90;;;;;;5022155;28;20201;-62
2022/10/26 07:38:28;;;;;;;1.33;1.10;;;16.40;99.90;;;;;;5015173;28;20217;-62
2022/10/26 07:40:55;;;;;;;1.30;1.20;;;16.40;99.90;;;;;;5021468;28;20578;-64
2022/10/26 07:43:21;;;;;;;1.30;1.20;;;16.40;99.90;;;;;;5019706;28;20194;-63
2022/10/26 07:45:50;;;;;;;1.27;1.10;;;16.40;99.90;;;;;;5024192;28;20300;-61
2022/10/26 07:48:18;;;;;;;0.97;0.97;;;16.50;99.90;;;;;;5017907;28;20225;-61
2022/10/26 07:50:45;;;;;;;1.93;1.00;;;16.50;99.90;;;;;;5020283;28;20201;-62
2022/10/26 07:53:12;;;;;;;1.00;1.00;;;16.50;99.90;;;;;;5019227;28;20209;-63
2022/10/26 07:55:38;;;;;;;1.30;1.20;;;16.60;99.90;;;;;;5014788;28;20216;-64
2022/10/26 07:58:05;;;;;;;2.37;1.40;;;16.60;99.90;;;;;;5012678;28;20767;-62
2022/10/26 08:00:32;;;;;;;1.00;1.00;;;16.60;99.90;;;;;;5012182;28;20201;-62
2022/10/26 08:02:59;;;;;;;2.10;1.30;;;16.60;99.90;;;;;;5007547;28;20206;-61
2022/10/26 08:05:27;;;;;;;1.30;1.20;;;16.60;99.90;;;;;;5011650;28;20220;-64
2022/10/26 08:07:54;;;;;;;2.97;1.10;;;16.70;99.90;;;;;;5008532;28;20746;-62
2022/10/26 08:10:21;;;;;;;1.40;1.30;;;16.70;99.90;;;;;;5015775;28;20693;-63
2022/10/26 08:12:47;;;;;;;1.37;1.10;;;16.80;99.90;;;;;;5019658;28;20209;-63
2022/10/26 08:15:14;;;;;;;1.07;1.03;;;16.80;99.90;;;;;;5013326;28;20221;-63
2022/10/26 08:17:41;;;;;;;1.40;1.30;;;16.80;99.90;;;;;;5013946;28;20229;-63
2022/10/26 08:20:09;;;;;;;1.07;1.07;;;16.80;99.90;;;;;;5012603;28;20205;-61
2022/10/26 08:22:37;;;;;;;1.30;1.20;;;16.90;99.90;;;;;;5012622;28;20285;-65
2022/10/26 08:25:04;;;;;;;0.90;0.90;;;16.90;99.90;;;;;;5015035;28;20260;-62
2022/10/26 08:27:31;;;;;;;1.40;1.30;;;17.00;99.90;;;;;;5012846;28;20741;-62
2022/10/26 08:29:58;;;;;;;1.20;1.10;;;17.00;99.90;;;;;;5012347;28;20201;-63
2022/10/26 08:32:25;;;;;;;2.83;1.20;;;17.10;99.90;;;;;;5014966;28;20237;-61
2022/10/26 08:34:52;;;;;;;1.20;1.10;;;17.10;99.90;;;;;;5015399;28;20229;-64
2022/10/26 08:37:19;;;;;;;1.03;1.03;;;17.20;99.90;;;;;;5014825;28;20669;-64
2022/10/26 08:39:47;;;;;;;1.17;1.10;;;17.20;99.90;;;;;;5013820;28;20201;-62
2022/10/26 08:42:18;;;;;;;1.00;1.00;;;17.20;99.90;;;;;;5014177;28;20205;-64
2022/10/26 08:44:47;;;;;;;1.63;1.30;;;17.40;99.90;;;;;;5015988;28;20225;-62
2022/10/26 08:47:18;;;;;;;1.27;1.17;;;17.40;99.90;;;;;;5014901;28;20233;-62
2022/10/26 08:49:51;;;;;;;1.47;1.30;;;17.50;99.90;;;;;;5015425;28;20212;-63
2022/10/26 08:52:26;;;;;;;1.23;1.20;;;17.60;99.90;;;;;;5011907;28;20198;-62
2022/10/26 08:54:57;;;;;;;1.40;1.30;;;17.60;99.90;;;;;;5015468;28;20235;-62
2022/10/26 08:57:27;;;;;;;1.20;1.20;;;17.70;99.90;;;;;;5015005;28;20202;-63
2022/10/26 08:59:59;;;;;;;1.50;1.40;;;17.70;99.90;;;;;;5011940;28;20570;-62
2022/10/26 09:02:25;;;;;;;1.43;1.33;;;17.70;99.90;;;;;;5014320;28;20790;-62
2022/10/26 09:04:54;;;;;;;1.40;1.10;;;17.70;99.90;;;;;;5015022;28;20229;-64
2022/10/26 09:07:42;;;;;;;1.30;1.20;;;17.70;99.90;;;;;;5000258;28;20565;-63
2022/10/26 09:10:34;;;;;;;1.20;1.10;;;17.70;99.90;;;;;;5012661;28;20201;-64
2022/10/26 09:13:06;;;;;;;1.50;1.40;;;17.70;99.90;;;;;;5015672;28;20279;-64
2022/10/26 09:15:46;;;;;;;1.20;1.10;;;17.60;99.90;;;;;;5011650;28;20265;-63
2022/10/26 09:18:27;;;;;;;0.97;0.87;;;17.60;99.90;;;;;;5014425;28;20312;-62
2022/10/26 09:21:08;;;;;;;1.23;1.13;;;17.60;99.90;;;;;;5018302;28;20200;-66
2022/10/26 09:23:54;;;;;;;1.30;1.20;;;17.60;99.90;;;;;;5014721;28;20232;-62
2022/10/26 09:26:31;;;;;;;1.10;1.10;;;17.70;99.90;;;;;;5013209;28;20232;-64
2022/10/26 09:29:02;;;;;;;1.37;1.27;;;17.70;99.90;;;;;;5018095;28;20261;-63
2022/10/26 09:31:38;;;;;;;1.33;1.23;;;17.70;99.90;;;;;;5015584;28;20201;-65
2022/10/26 09:34:07;;;;;;;1.10;1.10;;;17.80;99.90;;;;;;5013590;28;20227;-62
2022/10/26 09:36:35;;;;;;;1.10;1.10;;;17.80;99.90;;;;;;5014815;28;20201;-62
2022/10/26 09:39:15;;;;;;;1.40;1.30;;;17.80;99.90;;;;;;5013430;28;20232;-61
2022/10/26 09:41:48;;;;;;;1.30;1.20;;;17.80;99.90;;;;;;5008736;28;20209;-63
2022/10/26 09:44:25;;;;;;;1.40;1.30;;;17.80;99.90;;;;;;5014867;28;20284;-62
2022/10/26 09:46:58;;;;;;;1.30;1.20;;;17.90;99.90;;;;;;5014902;28;20204;-62
2022/10/26 09:49:33;;;;;;;1.23;1.07;;;17.90;99.90;;;;;;5013732;28;20226;-62
2022/10/26 09:52:00;;;;;;;1.87;1.10;;;18.00;99.90;;;;;;5014894;28;20685;-62
2022/10/26 09:54:27;;;;;;;1.17;1.07;;;18.00;99.90;;;;;;5012178;28;20214;-62
2022/10/26 09:56:59;;;;;;;1.10;1.03;;;18.10;99.90;;;;;;5015687;28;20573;-63
2022/10/26 09:59:26;;;;;;;1.20;1.20;;;18.20;99.90;;;;;;5002633;28;20237;-61
2022/10/26 10:01:53;;;;;;;1.20;1.10;;;18.30;99.90;;;;;;5013217;28;20211;-61
2022/10/26 10:04:22;;;;;;;1.10;1.10;;;18.40;99.90;;;;;;5011164;28;20201;-63
2022/10/26 10:06:51;;;;;;;1.50;1.40;;;18.40;99.90;;;;;;5014048;28;20212;-62
2022/10/26 10:09:19;;;;;;;1.50;1.30;;;18.50;99.90;;;;;;5010936;28;20240;-61
2022/10/26 10:11:53;;;;;;;0.97;0.97;;;18.50;99.90;;;;;;5004492;28;20214;-64
2022/10/26 10:14:23;;;;;;;1.33;1.23;;;18.60;99.90;;;;;;5011688;28;20213;-65
2022/10/26 10:16:53;;;;;;;1.30;1.20;;;18.70;99.90;;;;;;5009393;28;20652;-63
2022/10/26 10:19:25;;;;;;;1.23;1.13;;;18.80;99.90;;;;;;5010008;28;20225;-64
2022/10/26 10:21:55;;;;;;;1.30;1.20;;;18.80;99.90;;;;;;5004015;28;20212;-63
2022/10/26 10:24:28;;;;;;;1.30;1.20;;;18.80;99.90;;;;;;5006608;28;20213;-61
2022/10/26 10:27:03;;;;;;;1.27;1.17;;;18.90;99.90;;;;;;5011728;28;20210;-61
2022/10/26 10:29:33;;;;;;;1.40;1.30;;;18.90;99.90;;;;;;5007865;28;20280;-61
2022/10/26 10:32:01;;;;;;;1.03;1.03;;;18.90;99.90;;;;;;5015214;28;20196;-63
2022/10/26 10:34:31;;;;;;;1.30;1.03;;;18.90;99.90;;;;;;5008046;28;20713;-63
2022/10/26 10:36:59;;;;;;;1.23;1.20;;;19.00;99.90;;;;;;5015071;28;20201;-62
2022/10/26 10:39:37;;;;;;;1.87;1.40;;;19.00;99.90;;;;;;5014693;28;20225;-64
2022/10/26 10:42:11;;;;;;;1.23;1.13;;;19.20;99.90;;;;;;5006914;28;20208;-62
2022/10/26 10:44:39;;;;;;;1.20;1.20;;;19.30;99.90;;;;;;5007083;28;20201;-63
2022/10/26 10:47:07;;;;;;;1.57;1.20;;;19.30;99.90;;;;;;5013448;28;20291;-62
2022/10/26 10:49:34;;;;;;;1.23;1.20;;;19.40;99.90;;;;;;5011876;28;20225;-62
2022/10/26 10:52:01;;;;;;;1.10;1.10;;;19.50;99.90;;;;;;5017737;28;20196;-62
2022/10/26 10:54:31;;;;;;;1.23;1.13;;;19.60;99.90;;;;;;5007644;28;20226;-63
2022/10/26 10:57:11;;;;;;;1.17;1.07;;;19.60;99.90;;;;;;5022194;28;20204;-63
2022/10/26 10:59:51;;;;;;;1.33;1.27;;;19.70;99.90;;;;;;5008140;28;20212;-62
2022/10/26 11:03:06;;;;;;;1.20;1.13;;;19.70;99.90;;;;;;5006856;28;20206;-62
2022/10/26 11:05:58;;;;;;;1.20;1.20;;;19.70;99.90;;;;;;4952490;28;20771;-62
2022/10/26 11:08:29;;;;;;;1.10;1.00;;;19.90;99.90;;;;;;5009242;28;20291;-63
2022/10/26 11:11:03;;;;;;;1.00;1.00;;;19.90;99.90;;;;;;5012315;28;20209;-63
2022/10/26 11:13:36;;;;;;;1.30;1.20;;;20.00;99.90;;;;;;5017678;28;20232;-62
2022/10/26 11:16:13;;;;;;;1.40;1.20;;;20.00;99.90;;;;;;5015385;28;20767;-62
2022/10/26 11:18:45;;;;;;;1.20;1.10;;;20.10;99.90;;;;;;5025471;28;20229;-62
2022/10/26 11:21:22;;;;;;;1.10;1.10;;;20.20;99.90;;;;;;5032461;28;20643;-62
2022/10/26 11:23:52;;;;;;;1.57;1.17;;;20.20;99.90;;;;;;5031420;28;20209;-63
2022/10/26 11:26:25;;;;;;;2.10;1.40;;;20.30;99.90;;;;;;5014347;28;20193;-62
2022/10/26 11:28:59;;;;;;;1.77;1.23;;;20.40;99.90;;;;;;5020892;28;20279;-61
2022/10/26 11:31:32;;;;;;;1.33;1.23;;;20.50;99.90;;;;;;5006710;28;20205;-63
2022/10/26 11:34:13;;;;;;;1.33;1.20;;;20.80;99.90;;;;;;5032072;28;20201;-62
2022/10/26 11:36:43;;;;;;;1.17;1.17;;;20.90;99.90;;;;;;5028558;28;20204;-62
2022/10/26 11:39:20;;;;;;;1.50;1.40;;;21.00;99.90;;;;;;5029427;28;20228;-62
2022/10/26 11:41:52;;;;;;;1.52;1.42;;;21.20;99.90;;;;;;5022501;28;20209;-64
2022/10/26 11:44:27;;;;;;;1.38;1.27;;;21.20;99.90;;;;;;5020809;28;20663;-62
2022/10/26 11:47:01;;;;;;;1.48;1.38;;;21.30;99.90;;;;;;5024669;28;20255;-62
2022/10/26 11:49:34;;;;;;;1.30;1.20;;;21.40;99.90;;;;;;5030281;28;20228;-62
2022/10/26 11:52:08;;;;;;;1.40;1.30;;;21.40;99.90;;;;;;5018957;28;20573;-62
2022/10/26 11:54:40;;;;;;;1.40;1.30;;;21.50;99.90;;;;;;5030207;28;20252;-63
2022/10/26 11:57:09;;;;;;;1.70;1.58;;;21.50;99.90;;;;;;5026560;28;20200;-62
2022/10/26 11:59:42;;;;;;;1.30;1.20;;;21.60;99.90;;;;;;5018912;28;20276;-63
2022/10/26 12:02:16;;;;;;;2.08;1.38;;;21.60;99.90;;;;;;5015376;28;20602;-63
2022/10/26 12:04:47;;;;;;;1.88;1.30;;;21.60;99.90;;;;;;5018468;28;20225;-63
2022/10/26 12:07:25;;;;;;;1.27;1.20;;;21.70;99.90;;;;;;5012018;28;20212;-61
2022/10/26 12:09:54;;;;;;;1.25;1.15;;;21.80;99.90;;;;;;5027154;28;20617;-62
2022/10/26 12:12:28;;;;;;;1.30;1.13;;;21.90;99.90;;;;;;5024306;28;20201;-62
2022/10/26 12:15:01;;;;;;;1.90;1.67;;;21.90;99.90;;;;;;5026110;28;20232;-62
2022/10/26 12:17:36;;;;;;;1.20;1.10;;;22.00;99.90;;;;;;5014554;28;20205;-62
2022/10/26 12:20:22;;;;;;;1.10;1.00;;;22.00;99.90;;;;;;5011962;28;20210;-62
2022/10/26 12:22:49;;;;;;;1.55;1.20;;;22.10;99.90;;;;;;5015280;28;20728;-60
2022/10/26 12:25:20;;;;;;;1.40;1.30;;;22.10;99.90;;;;;;5019701;28;20203;-64
2022/10/26 12:27:53;;;;;;;1.05;1.02;;;22.20;99.90;;;;;;5016190;28;20326;-62
2022/10/26 12:30:30;;;;;;;1.05;1.02;;;22.30;99.90;;;;;;5010768;28;20682;-61
2022/10/26 12:33:00;;;;;;;1.30;1.20;;;22.30;99.90;;;;;;5015675;28;20291;-61
2022/10/26 12:35:41;;;;;;;0.98;0.98;;;22.30;99.90;;;;;;5006239;28;20601;-61
2022/10/26 12:38:49;;;;;;;1.20;1.10;;;22.40;99.90;;;;;;5012886;28;20312;-63
2022/10/26 12:41:24;;;;;;;1.10;1.10;;;22.50;99.90;;;;;;5015606;28;20639;-62
2022/10/26 12:43:56;;;;;;;1.25;1.15;;;22.60;99.90;;;;;;5012142;28;20211;-62
2022/10/26 12:46:41;;;;;;;1.55;1.20;;;22.60;99.90;;;;;;5009606;28;20609;-63
2022/10/26 12:49:55;;;;;;;1.15;1.10;;;22.60;99.90;;;;;;5013215;28;20221;-62
2022/10/26 12:52:40;;;;;;;1.05;1.02;;;22.70;99.90;;;;;;5008965;28;20208;-62
2022/10/26 12:55:47;;;;;;;1.38;1.27;;;22.80;99.90;;;;;;5015931;28;20228;-62
2022/10/26 12:58:49;;;;;;;1.20;1.10;;;22.80;99.90;;;;;;5011952;28;20244;-63
2022/10/26 13:01:55;;;;;;;1.10;1.00;;;22.80;99.90;;;;;;5012691;28;20205;-61
2022/10/26 13:05:07;;;;;;;1.98;1.30;;;22.90;99.90;;;;;;4993116;28;20205;-63
2022/10/26 13:07:37;;;;;;;1.08;1.08;;;22.90;99.90;;;;;;5010650;28;20229;-62
2022/10/26 13:10:16;;;;;;;1.10;1.10;;;23.00;99.90;;;;;;5014880;28;20203;-63